Terminal Aerodrome Forecast
Issued by NWS Sioux Falls, SD

Home | Current Version | Previous Version | Text Only | Print | Product List | Glossary On
Versions: 1 2 3 4 5 6 7 8 9 10 11 12 13
000
FTUS43 KFSD 151120
TAFSUX
TAF
KSUX 151120Z 1512/1612 26010KT P6SM BKN050
     FM151400 25010KT P6SM SCT050 SCT120
     FM152100 21012KT P6SM SCT140
     FM160100 20008KT P6SM SCT200=

USA.gov is the U.S. government's official web portal to all federal, state and local government web resources and services.